sensor_id;sensor_type;location;lat;lon;timestamp;pressure;altitude;pressure_sealevel;temperature;humidity
22755;BME280;11544;42.020;23.094;2023-07-13T00:02:20;97380.09;;;24.87;73.62
22755;BME280;11544;42.020;23.094;2023-07-13T00:04:47;97385.53;;;24.16;78.19
22755;BME280;11544;42.020;23.094;2023-07-13T00:07:19;97382.72;;;24.08;79.10
22755;BME280;11544;42.020;23.094;2023-07-13T00:09:48;97380.91;;;24.49;78.71
22755;BME280;11544;42.020;23.094;2023-07-13T00:12:36;97375.88;;;24.65;77.95
22755;BME280;11544;42.020;23.094;2023-07-13T00:15:22;97375.78;;;24.26;80.86
22755;BME280;11544;42.020;23.094;2023-07-13T00:17:51;97369.28;;;25.08;78.21
22755;BME280;11544;42.020;23.094;2023-07-13T00:20:22;97365.38;;;24.93;74.20
22755;BME280;11544;42.020;23.094;2023-07-13T00:22:52;97370.44;;;24.77;73.66
22755;BME280;11544;42.020;23.094;2023-07-13T00:25:21;97374.63;;;24.50;76.57
22755;BME280;11544;42.020;23.094;2023-07-13T00:27:51;97372.94;;;24.68;75.07
22755;BME280;11544;42.020;23.094;2023-07-13T00:30:18;97365.50;;;25.01;71.79
22755;BME280;11544;42.020;23.094;2023-07-13T00:32:46;97372.81;;;24.99;71.89
22755;BME280;11544;42.020;23.094;2023-07-13T00:35:14;97377.00;;;24.82;69.38
22755;BME280;11544;42.020;23.094;2023-07-13T00:37:41;97376.88;;;24.64;73.35
22755;BME280;11544;42.020;23.094;2023-07-13T00:40:11;97378.66;;;24.54;74.79
22755;BME280;11544;42.020;23.094;2023-07-13T00:42:39;97375.47;;;24.60;73.15
22755;BME280;11544;42.020;23.094;2023-07-13T00:48:05;97377.28;;;24.09;75.50
22755;BME280;11544;42.020;23.094;2023-07-13T00:50:37;97373.69;;;23.68;76.10
22755;BME280;11544;42.020;23.094;2023-07-13T00:53:05;97376.50;;;23.67;78.41
22755;BME280;11544;42.020;23.094;2023-07-13T00:55:32;97376.16;;;24.12;79.59
22755;BME280;11544;42.020;23.094;2023-07-13T00:58:07;97376.81;;;23.53;77.58
22755;BME280;11544;42.020;23.094;2023-07-13T01:01:01;97383.13;;;23.31;80.88
22755;BME280;11544;42.020;23.094;2023-07-13T01:03:28;97383.00;;;24.05;79.06
22755;BME280;11544;42.020;23.094;2023-07-13T01:05:56;97368.41;;;24.49;75.23
22755;BME280;11544;42.020;23.094;2023-07-13T01:08:30;97373.94;;;24.17;76.77
22755;BME280;11544;42.020;23.094;2023-07-13T01:10:57;97380.22;;;24.16;76.02
22755;BME280;11544;42.020;23.094;2023-07-13T01:13:25;97381.78;;;23.88;79.05
22755;BME280;11544;42.020;23.094;2023-07-13T01:15:53;97380.34;;;23.32;81.55
22755;BME280;11544;42.020;23.094;2023-07-13T01:18:23;97378.03;;;24.21;76.56
22755;BME280;11544;42.020;23.094;2023-07-13T01:20:59;97376.75;;;23.22;82.09
22755;BME280;11544;42.020;23.094;2023-07-13T01:23:55;97373.16;;;23.44;82.94
22755;BME280;11544;42.020;23.094;2023-07-13T01:26:22;97375.34;;;23.60;79.24
22755;BME280;11544;42.020;23.094;2023-07-13T01:28:49;97378.53;;;23.33;81.61
22755;BME280;11544;42.020;23.094;2023-07-13T01:31:16;97376.53;;;23.98;78.73
22755;BME280;11544;42.020;23.094;2023-07-13T01:33:43;97380.09;;;23.35;80.36
22755;BME280;11544;42.020;23.094;2023-07-13T01:36:14;97387.09;;;23.36;82.02
22755;BME280;11544;42.020;23.094;2023-07-13T01:38:40;97388.59;;;23.08;83.08
22755;BME280;11544;42.020;23.094;2023-07-13T01:41:10;97389.78;;;23.04;84.33
22755;BME280;11544;42.020;23.094;2023-07-13T01:43:37;97387.56;;;22.77;85.16
22755;BME280;11544;42.020;23.094;2023-07-13T01:46:07;97385.72;;;22.89;85.62
22755;BME280;11544;42.020;23.094;2023-07-13T01:48:49;97393.41;;;22.71;86.17
22755;BME280;11544;42.020;23.094;2023-07-13T01:51:17;97393.66;;;23.32;85.98
22755;BME280;11544;42.020;23.094;2023-07-13T01:53:44;97389.84;;;22.81;84.55
22755;BME280;11544;42.020;23.094;2023-07-13T01:56:12;97392.72;;;22.90;86.83
22755;BME280;11544;42.020;23.094;2023-07-13T01:58:39;97391.41;;;22.84;85.76
22755;BME280;11544;42.020;23.094;2023-07-13T02:01:06;97393.31;;;22.61;87.99
22755;BME280;11544;42.020;23.094;2023-07-13T02:03:35;97397.88;;;23.02;85.27
22755;BME280;11544;42.020;23.094;2023-07-13T02:06:02;97393.88;;;23.29;85.65
22755;BME280;11544;42.020;23.094;2023-07-13T02:08:30;97402.72;;;22.97;86.83
22755;BME280;11544;42.020;23.094;2023-07-13T02:10:57;97396.16;;;23.34;86.10
22755;BME280;11544;42.020;23.094;2023-07-13T02:13:23;97398.97;;;23.74;83.32
22755;BME280;11544;42.020;23.094;2023-07-13T02:15:51;97401.09;;;23.17;82.02
22755;BME280;11544;42.020;23.094;2023-07-13T02:18:18;97400.81;;;22.99;83.67
22755;BME280;11544;42.020;23.094;2023-07-13T02:20:52;97402.47;;;23.54;81.24
22755;BME280;11544;42.020;23.094;2023-07-13T02:23:22;97396.25;;;22.79;84.08
22755;BME280;11544;42.020;23.094;2023-07-13T02:25:49;97399.97;;;23.62;81.91
22755;BME280;11544;42.020;23.094;2023-07-13T02:28:16;97396.63;;;23.60;82.11
22755;BME280;11544;42.020;23.094;2023-07-13T02:30:44;97400.84;;;23.20;82.72
22755;BME280;11544;42.020;23.094;2023-07-13T02:33:11;97404.38;;;22.77;85.97
22755;BME280;11544;42.020;23.094;2023-07-13T02:35:38;97393.00;;;23.40;87.78
22755;BME280;11544;42.020;23.094;2023-07-13T02:38:05;97398.31;;;23.61;85.82
22755;BME280;11544;42.020;23.094;2023-07-13T02:40:33;97408.41;;;22.93;87.38
22755;BME280;11544;42.020;23.094;2023-07-13T02:43:00;97409.13;;;22.95;87.73
22755;BME280;11544;42.020;23.094;2023-07-13T02:45:29;97408.44;;;23.25;85.30
22755;BME280;11544;42.020;23.094;2023-07-13T02:47:59;97412.38;;;22.66;88.89
22755;BME280;11544;42.020;23.094;2023-07-13T02:50:26;97410.38;;;22.36;90.61
22755;BME280;11544;42.020;23.094;2023-07-13T02:52:53;97414.50;;;22.29;89.95
22755;BME280;11544;42.020;23.094;2023-07-13T02:55:20;97420.38;;;22.98;89.54
22755;BME280;11544;42.020;23.094;2023-07-13T02:57:55;97421.66;;;23.15;87.03
22755;BME280;11544;42.020;23.094;2023-07-13T03:00:25;97417.44;;;23.13;88.13
22755;BME280;11544;42.020;23.094;2023-07-13T03:02:51;97420.72;;;23.05;90.05
22755;BME280;11544;42.020;23.094;2023-07-13T03:05:21;97423.91;;;22.99;87.58
22755;BME280;11544;42.020;23.094;2023-07-13T03:07:53;97424.22;;;22.62;89.59
22755;BME280;11544;42.020;23.094;2023-07-13T03:10:21;97418.53;;;23.31;88.68
22755;BME280;11544;42.020;23.094;2023-07-13T03:12:48;97424.69;;;22.67;90.70
22755;BME280;11544;42.020;23.094;2023-07-13T03:15:15;97420.47;;;22.65;90.35
22755;BME280;11544;42.020;23.094;2023-07-13T03:17:42;97418.31;;;22.58;87.53
22755;BME280;11544;42.020;23.094;2023-07-13T03:20:09;97418.31;;;23.02;86.54
22755;BME280;11544;42.020;23.094;2023-07-13T03:22:36;97422.84;;;23.43;83.52
22755;BME280;11544;42.020;23.094;2023-07-13T03:25:04;97421.06;;;23.96;82.33
22755;BME280;11544;42.020;23.094;2023-07-13T03:27:31;97424.75;;;22.88;83.27
22755;BME280;11544;42.020;23.094;2023-07-13T03:30:06;97437.66;;;22.93;85.06
22755;BME280;11544;42.020;23.094;2023-07-13T03:32:33;97437.88;;;22.57;86.81
22755;BME280;11544;42.020;23.094;2023-07-13T03:35:00;97431.97;;;23.09;85.12
22755;BME280;11544;42.020;23.094;2023-07-13T03:37:28;97434.97;;;23.15;87.80
22755;BME280;11544;42.020;23.094;2023-07-13T03:39:56;97433.31;;;23.77;80.54
22755;BME280;11544;42.020;23.094;2023-07-13T03:42:23;97427.03;;;23.88;81.45
22755;BME280;11544;42.020;23.094;2023-07-13T03:44:50;97432.13;;;23.49;82.42
22755;BME280;11544;42.020;23.094;2023-07-13T03:47:19;97432.59;;;22.90;84.53
22755;BME280;11544;42.020;23.094;2023-07-13T03:49:46;97424.47;;;24.38;78.19
22755;BME280;11544;42.020;23.094;2023-07-13T03:52:13;97438.91;;;23.21;83.89
22755;BME280;11544;42.020;23.094;2023-07-13T03:54:40;97436.91;;;23.34;85.25
22755;BME280;11544;42.020;23.094;2023-07-13T03:57:08;97430.78;;;24.06;81.88
22755;BME280;11544;42.020;23.094;2023-07-13T03:59:49;97430.34;;;24.01;80.81
22755;BME280;11544;42.020;23.094;2023-07-13T04:02:25;97430.81;;;24.16;83.39
22755;BME280;11544;42.020;23.094;2023-07-13T04:04:52;97429.84;;;24.48;79.23
22755;BME280;11544;42.020;23.094;2023-07-13T04:07:20;97428.53;;;25.12;76.90
22755;BME280;11544;42.020;23.094;2023-07-13T04:09:47;97420.63;;;24.52;81.42
22755;BME280;11544;42.020;23.094;2023-07-13T04:12:14;97421.28;;;24.54;80.79
22755;BME280;11544;42.020;23.094;2023-07-13T04:14:41;97429.69;;;24.49;81.34
22755;BME280;11544;42.020;23.094;2023-07-13T04:17:08;97420.84;;;26.05;72.08
22755;BME280;11544;42.020;23.094;2023-07-13T04:19:45;97436.00;;;25.38;73.79
22755;BME280;11544;42.020;23.094;2023-07-13T04:22:12;97432.31;;;24.40;77.47
22755;BME280;11544;42.020;23.094;2023-07-13T04:24:39;97439.84;;;23.94;83.95
22755;BME280;11544;42.020;23.094;2023-07-13T04:27:07;97439.09;;;25.33;75.59
22755;BME280;11544;42.020;23.094;2023-07-13T04:29:34;97441.00;;;25.70;73.40
22755;BME280;11544;42.020;23.094;2023-07-13T04:32:07;97447.91;;;24.95;77.85
22755;BME280;11544;42.020;23.094;2023-07-13T04:34:34;97439.25;;;26.17;70.28
22755;BME280;11544;42.020;23.094;2023-07-13T04:37:01;97437.47;;;25.89;70.96
22755;BME280;11544;42.020;23.094;2023-07-13T04:39:28;97431.59;;;25.75;71.90
22755;BME280;11544;42.020;23.094;2023-07-13T04:41:55;97431.97;;;26.37;68.27
22755;BME280;11544;42.020;23.094;2023-07-13T04:44:22;97430.13;;;26.01;69.96
22755;BME280;11544;42.020;23.094;2023-07-13T04:46:50;97431.22;;;24.92;77.38
22755;BME280;11544;42.020;23.094;2023-07-13T04:49:17;97427.38;;;24.35;82.79
22755;BME280;11544;42.020;23.094;2023-07-13T04:51:45;97426.59;;;25.43;75.49
22755;BME280;11544;42.020;23.094;2023-07-13T04:54:19;97429.09;;;25.54;74.78
22755;BME280;11544;42.020;23.094;2023-07-13T04:56:46;97427.19;;;25.37;73.97
22755;BME280;11544;42.020;23.094;2023-07-13T04:59:16;97422.19;;;24.74;78.88
22755;BME280;11544;42.020;23.094;2023-07-13T05:01:44;97426.84;;;25.60;71.92
22755;BME280;11544;42.020;23.094;2023-07-13T05:04:11;97427.41;;;25.05;77.57
22755;BME280;11544;42.020;23.094;2023-07-13T05:06:39;97426.75;;;26.36;69.40
22755;BME280;11544;42.020;23.094;2023-07-13T05:09:06;97428.94;;;26.23;70.02
22755;BME280;11544;42.020;23.094;2023-07-13T05:11:33;97440.47;;;25.66;73.70
22755;BME280;11544;42.020;23.094;2023-07-13T05:14:00;97428.03;;;26.87;66.38
22755;BME280;11544;42.020;23.094;2023-07-13T05:16:30;97420.81;;;26.14;68.70
22755;BME280;11544;42.020;23.094;2023-07-13T05:18:59;97438.09;;;25.63;71.81
22755;BME280;11544;42.020;23.094;2023-07-13T05:21:26;97437.69;;;25.29;75.53
22755;BME280;11544;42.020;23.094;2023-07-13T05:23:53;97431.88;;;27.02;67.66
22755;BME280;11544;42.020;23.094;2023-07-13T05:26:21;97431.56;;;25.95;71.14
22755;BME280;11544;42.020;23.094;2023-07-13T05:28:48;97417.13;;;27.16;64.97
22755;BME280;11544;42.020;23.094;2023-07-13T05:31:15;97428.59;;;25.98;71.42
22755;BME280;11544;42.020;23.094;2023-07-13T05:33:42;97420.63;;;27.53;65.23
22755;BME280;11544;42.020;23.094;2023-07-13T05:36:09;97417.88;;;28.15;63.11
22755;BME280;11544;42.020;23.094;2023-07-13T05:38:36;97416.84;;;28.42;60.72
22755;BME280;11544;42.020;23.094;2023-07-13T05:41:03;97424.13;;;27.71;63.14
22755;BME280;11544;42.020;23.094;2023-07-13T05:43:32;97429.31;;;27.99;62.56
22755;BME280;11544;42.020;23.094;2023-07-13T05:45:59;97429.97;;;28.19;62.21
22755;BME280;11544;42.020;23.094;2023-07-13T05:48:39;97425.88;;;28.06;63.30
22755;BME280;11544;42.020;23.094;2023-07-13T05:51:12;97427.22;;;28.11;63.34
22755;BME280;11544;42.020;23.094;2023-07-13T05:53:39;97424.03;;;28.07;62.14
22755;BME280;11544;42.020;23.094;2023-07-13T05:56:06;97428.28;;;27.92;64.48
22755;BME280;11544;42.020;23.094;2023-07-13T05:58:33;97433.56;;;27.57;67.15
22755;BME280;11544;42.020;23.094;2023-07-13T06:01:07;97431.75;;;28.95;60.39
22755;BME280;11544;42.020;23.094;2023-07-13T06:03:35;97431.63;;;29.62;56.49
22755;BME280;11544;42.020;23.094;2023-07-13T06:06:05;97435.38;;;29.37;58.94
22755;BME280;11544;42.020;23.094;2023-07-13T06:08:33;97433.75;;;28.42;62.09
22755;BME280;11544;42.020;23.094;2023-07-13T06:11:09;97423.19;;;28.83;60.14
22755;BME280;11544;42.020;23.094;2023-07-13T06:13:37;97426.63;;;29.51;57.31
22755;BME280;11544;42.020;23.094;2023-07-13T06:16:04;97436.97;;;29.05;59.79
22755;BME280;11544;42.020;23.094;2023-07-13T06:18:33;97422.97;;;28.68;60.82
22755;BME280;11544;42.020;23.094;2023-07-13T06:21:10;97424.44;;;29.30;58.49
22755;BME280;11544;42.020;23.094;2023-07-13T06:23:38;97431.34;;;29.73;57.31
22755;BME280;11544;42.020;23.094;2023-07-13T06:26:06;97426.06;;;29.06;57.99
22755;BME280;11544;42.020;23.094;2023-07-13T06:28:34;97427.63;;;29.83;55.78
22755;BME280;11544;42.020;23.094;2023-07-13T06:31:04;97422.44;;;30.45;54.78
22755;BME280;11544;42.020;23.094;2023-07-13T06:33:31;97430.16;;;29.76;56.33
22755;BME280;11544;42.020;23.094;2023-07-13T06:35:58;97418.00;;;30.05;54.70
22755;BME280;11544;42.020;23.094;2023-07-13T06:38:25;97427.94;;;29.88;55.63
22755;BME280;11544;42.020;23.094;2023-07-13T06:40:52;97412.03;;;30.42;54.52
22755;BME280;11544;42.020;23.094;2023-07-13T06:43:19;97421.03;;;30.10;55.12
22755;BME280;11544;42.020;23.094;2023-07-13T06:45:48;97426.97;;;29.72;56.54
22755;BME280;11544;42.020;23.094;2023-07-13T06:48:17;97423.16;;;30.23;53.42
22755;BME280;11544;42.020;23.094;2023-07-13T06:50:46;97425.69;;;30.72;52.05
22755;BME280;11544;42.020;23.094;2023-07-13T06:53:13;97428.88;;;30.67;50.76
22755;BME280;11544;42.020;23.094;2023-07-13T06:55:40;97426.19;;;30.28;52.37
22755;BME280;11544;42.020;23.094;2023-07-13T06:58:07;97417.22;;;31.75;49.06
22755;BME280;11544;42.020;23.094;2023-07-13T07:00:34;97426.50;;;30.72;49.95
22755;BME280;11544;42.020;23.094;2023-07-13T07:03:01;97416.59;;;31.04;50.52
22755;BME280;11544;42.020;23.094;2023-07-13T07:05:28;97418.03;;;31.15;50.36
22755;BME280;11544;42.020;23.094;2023-07-13T07:07:55;97410.13;;;31.13;50.91
22755;BME280;11544;42.020;23.094;2023-07-13T07:10:22;97401.75;;;31.31;49.27
22755;BME280;11544;42.020;23.094;2023-07-13T07:12:49;97401.81;;;30.21;53.26
22755;BME280;11544;42.020;23.094;2023-07-13T07:15:17;97397.63;;;31.20;51.74
22755;BME280;11544;42.020;23.094;2023-07-13T07:17:44;97383.84;;;31.91;47.28
22755;BME280;11544;42.020;23.094;2023-07-13T07:20:11;97380.72;;;32.02;49.48
22755;BME280;11544;42.020;23.094;2023-07-13T07:22:39;97382.75;;;31.71;48.41
22755;BME280;11544;42.020;23.094;2023-07-13T07:25:06;97375.66;;;31.70;48.06
22755;BME280;11544;42.020;23.094;2023-07-13T07:27:33;97380.91;;;32.31;45.83
22755;BME280;11544;42.020;23.094;2023-07-13T07:30:04;97372.38;;;32.12;48.51
22755;BME280;11544;42.020;23.094;2023-07-13T07:32:34;97382.38;;;32.33;48.03
22755;BME280;11544;42.020;23.094;2023-07-13T07:35:04;97374.59;;;31.41;49.30
22755;BME280;11544;42.020;23.094;2023-07-13T07:37:31;97377.84;;;32.19;46.97
22755;BME280;11544;42.020;23.094;2023-07-13T07:40:01;97376.72;;;31.22;48.67
22755;BME280;11544;42.020;23.094;2023-07-13T07:42:30;97378.09;;;31.79;48.29
22755;BME280;11544;42.020;23.094;2023-07-13T07:44:57;97374.28;;;31.89;49.18
22755;BME280;11544;42.020;23.094;2023-07-13T07:47:24;97370.75;;;31.73;47.44
22755;BME280;11544;42.020;23.094;2023-07-13T07:49:54;97374.84;;;31.84;46.04
22755;BME280;11544;42.020;23.094;2023-07-13T07:52:21;97362.84;;;32.31;47.03
22755;BME280;11544;42.020;23.094;2023-07-13T07:54:48;97356.41;;;32.62;45.55
22755;BME280;11544;42.020;23.094;2023-07-13T07:57:18;97356.94;;;32.21;44.76
22755;BME280;11544;42.020;23.094;2023-07-13T08:00:05;97356.72;;;32.37;45.47
22755;BME280;11544;42.020;23.094;2023-07-13T08:02:35;97361.53;;;33.58;43.73
22755;BME280;11544;42.020;23.094;2023-07-13T08:05:05;97354.53;;;32.99;43.49
22755;BME280;11544;42.020;23.094;2023-07-13T08:07:36;97348.22;;;32.55;44.00
22755;BME280;11544;42.020;23.094;2023-07-13T08:10:05;97344.28;;;32.21;43.78
22755;BME280;11544;42.020;23.094;2023-07-13T08:12:39;97345.69;;;32.90;41.83
22755;BME280;11544;42.020;23.094;2023-07-13T08:15:12;97339.97;;;33.15;42.95
22755;BME280;11544;42.020;23.094;2023-07-13T08:17:40;97339.16;;;32.99;44.77
22755;BME280;11544;42.020;23.094;2023-07-13T08:20:07;97333.63;;;33.29;40.93
22755;BME280;11544;42.020;23.094;2023-07-13T08:22:35;97330.75;;;33.59;39.55
22755;BME280;11544;42.020;23.094;2023-07-13T08:25:03;97324.44;;;33.23;40.54
22755;BME280;11544;42.020;23.094;2023-07-13T08:27:30;97318.59;;;33.20;42.00
22755;BME280;11544;42.020;23.094;2023-07-13T08:29:57;97313.38;;;33.46;42.27
22755;BME280;11544;42.020;23.094;2023-07-13T08:32:25;97306.63;;;33.85;40.75
22755;BME280;11544;42.020;23.094;2023-07-13T08:34:52;97303.97;;;33.64;42.03
22755;BME280;11544;42.020;23.094;2023-07-13T08:37:19;97298.06;;;33.53;43.52
22755;BME280;11544;42.020;23.094;2023-07-13T08:39:46;97295.47;;;33.67;43.00
22755;BME280;11544;42.020;23.094;2023-07-13T08:42:36;97294.53;;;33.81;42.97
22755;BME280;11544;42.020;23.094;2023-07-13T08:48:26;97285.75;;;34.14;39.56
22755;BME280;11544;42.020;23.094;2023-07-13T08:53:47;97289.34;;;34.34;38.00
22755;BME280;11544;42.020;23.094;2023-07-13T08:56:25;97283.69;;;34.97;36.42
22755;BME280;11544;42.020;23.094;2023-07-13T08:58:57;97279.94;;;34.92;38.52
22755;BME280;11544;42.020;23.094;2023-07-13T09:01:29;97282.00;;;34.76;38.29
22755;BME280;11544;42.020;23.094;2023-07-13T09:06:55;97269.09;;;34.98;37.54
22755;BME280;11544;42.020;23.094;2023-07-13T09:17:53;97249.25;;;35.65;35.10
22755;BME280;11544;42.020;23.094;2023-07-13T09:20:31;97251.81;;;35.06;35.13
22755;BME280;11544;42.020;23.094;2023-07-13T09:23:06;97251.38;;;35.42;36.75
22755;BME280;11544;42.020;23.094;2023-07-13T09:25:35;97241.97;;;35.45;36.37
22755;BME280;11544;42.020;23.094;2023-07-13T09:30:47;97235.84;;;35.90;36.51
22755;BME280;11544;42.020;23.094;2023-07-13T09:33:18;97233.22;;;35.43;35.76
22755;BME280;11544;42.020;23.094;2023-07-13T09:35:45;97222.25;;;35.96;37.47
22755;BME280;11544;42.020;23.094;2023-07-13T09:38:17;97225.28;;;36.20;35.32
22755;BME280;11544;42.020;23.094;2023-07-13T09:43:36;97209.81;;;36.27;36.48
22755;BME280;11544;42.020;23.094;2023-07-13T09:46:04;97215.53;;;36.76;35.99
22755;BME280;11544;42.020;23.094;2023-07-13T09:48:35;97206.16;;;36.01;36.81
22755;BME280;11544;42.020;23.094;2023-07-13T09:51:15;97195.03;;;36.55;36.13
22755;BME280;11544;42.020;23.094;2023-07-13T09:53:43;97202.84;;;35.93;35.56
22755;BME280;11544;42.020;23.094;2023-07-13T09:56:27;97198.06;;;35.88;35.04
22755;BME280;11544;42.020;23.094;2023-07-13T09:58:54;97198.38;;;36.82;33.98
22755;BME280;11544;42.020;23.094;2023-07-13T10:01:35;97195.59;;;36.57;35.47
22755;BME280;11544;42.020;23.094;2023-07-13T10:04:11;97184.50;;;36.33;33.01
22755;BME280;11544;42.020;23.094;2023-07-13T10:06:40;97192.22;;;36.36;32.74
22755;BME280;11544;42.020;23.094;2023-07-13T10:09:10;97193.56;;;35.75;34.05
22755;BME280;11544;42.020;23.094;2023-07-13T10:11:40;97194.31;;;34.91;34.03
22755;BME280;11544;42.020;23.094;2023-07-13T10:14:21;97198.25;;;36.70;33.13
22755;BME280;11544;42.020;23.094;2023-07-13T10:16:58;97186.00;;;36.61;32.16
22755;BME280;11544;42.020;23.094;2023-07-13T10:19:27;97189.50;;;36.93;30.77
22755;BME280;11544;42.020;23.094;2023-07-13T10:22:00;97178.34;;;37.01;30.97
22755;BME280;11544;42.020;23.094;2023-07-13T10:24:32;97176.31;;;37.40;30.54
22755;BME280;11544;42.020;23.094;2023-07-13T10:27:13;97178.72;;;37.48;30.95
22755;BME280;11544;42.020;23.094;2023-07-13T10:30:45;97181.19;;;37.13;29.62
22755;BME280;11544;42.020;23.094;2023-07-13T10:32:58;97171.41;;;37.31;26.85
22755;BME280;11544;42.020;23.094;2023-07-13T10:35:29;97162.41;;;37.85;26.65
22755;BME280;11544;42.020;23.094;2023-07-13T10:38:18;97164.31;;;37.48;26.14
22755;BME280;11544;42.020;23.094;2023-07-13T10:40:58;97165.97;;;37.67;27.18
22755;BME280;11544;42.020;23.094;2023-07-13T10:43:35;97163.44;;;38.03;29.24
22755;BME280;11544;42.020;23.094;2023-07-13T10:46:06;97162.41;;;38.04;29.68
22755;BME280;11544;42.020;23.094;2023-07-13T10:48:35;97154.34;;;37.60;28.72
22755;BME280;11544;42.020;23.094;2023-07-13T10:51:05;97147.69;;;37.75;30.16
22755;BME280;11544;42.020;23.094;2023-07-13T10:53:37;97145.31;;;37.97;28.60
22755;BME280;11544;42.020;23.094;2023-07-13T10:56:22;97139.94;;;38.08;28.16
22755;BME280;11544;42.020;23.094;2023-07-13T10:59:11;97136.34;;;38.38;30.52
22755;BME280;11544;42.020;23.094;2023-07-13T11:04:40;97127.06;;;38.16;29.30
22755;BME280;11544;42.020;23.094;2023-07-13T11:07:19;97131.44;;;38.17;29.58
22755;BME280;11544;42.020;23.094;2023-07-13T11:09:51;97123.09;;;38.00;28.36
22755;BME280;11544;42.020;23.094;2023-07-13T11:17:51;97112.03;;;38.13;28.52
22755;BME280;11544;42.020;23.094;2023-07-13T11:20:36;97106.91;;;38.05;29.29
22755;BME280;11544;42.020;23.094;2023-07-13T11:25:39;97098.09;;;37.42;28.53
22755;BME280;11544;42.020;23.094;2023-07-13T11:28:18;97104.56;;;37.23;29.13
22755;BME280;11544;42.020;23.094;2023-07-13T11:33:50;97101.88;;;38.20;28.42
22755;BME280;11544;42.020;23.094;2023-07-13T11:36:23;97105.06;;;38.17;29.12
22755;BME280;11544;42.020;23.094;2023-07-13T11:38:59;97099.72;;;37.80;28.01
22755;BME280;11544;42.020;23.094;2023-07-13T11:46:34;97086.19;;;38.81;27.30
22755;BME280;11544;42.020;23.094;2023-07-13T11:49:06;97084.78;;;38.90;28.80
22755;BME280;11544;42.020;23.094;2023-07-13T11:51:35;97070.34;;;39.02;27.61
22755;BME280;11544;42.020;23.094;2023-07-13T11:54:05;97075.44;;;39.10;28.47
22755;BME280;11544;42.020;23.094;2023-07-13T11:56:33;97075.69;;;38.61;25.80
22755;BME280;11544;42.020;23.094;2023-07-13T11:59:06;97070.13;;;38.68;26.95
22755;BME280;11544;42.020;23.094;2023-07-13T12:01:36;97068.72;;;38.11;26.12
22755;BME280;11544;42.020;23.094;2023-07-13T12:04:21;97072.41;;;38.17;24.24
22755;BME280;11544;42.020;23.094;2023-07-13T12:06:58;97061.91;;;38.32;24.39
22755;BME280;11544;42.020;23.094;2023-07-13T12:09:29;97055.78;;;38.61;25.25
22755;BME280;11544;42.020;23.094;2023-07-13T12:11:57;97053.19;;;38.78;25.49
22755;BME280;11544;42.020;23.094;2023-07-13T12:14:27;97048.28;;;38.32;24.67
22755;BME280;11544;42.020;23.094;2023-07-13T12:16:55;97044.75;;;38.44;25.83
22755;BME280;11544;42.020;23.094;2023-07-13T12:19:25;97040.09;;;38.09;24.94
22755;BME280;11544;42.020;23.094;2023-07-13T12:21:56;97035.06;;;37.94;25.91
22755;BME280;11544;42.020;23.094;2023-07-13T12:24:25;97035.72;;;38.90;25.92
22755;BME280;11544;42.020;23.094;2023-07-13T12:29:19;97022.25;;;38.72;26.27
22755;BME280;11544;42.020;23.094;2023-07-13T12:31:49;97025.72;;;38.79;26.84
22755;BME280;11544;42.020;23.094;2023-07-13T12:34:21;97013.44;;;39.17;26.75
22755;BME280;11544;42.020;23.094;2023-07-13T12:36:49;97011.00;;;38.09;26.33
22755;BME280;11544;42.020;23.094;2023-07-13T12:39:23;97012.50;;;38.05;27.54
22755;BME280;11544;42.020;23.094;2023-07-13T12:41:52;97016.59;;;38.62;26.73
22755;BME280;11544;42.020;23.094;2023-07-13T12:44:27;97009.53;;;39.13;27.01
22755;BME280;11544;42.020;23.094;2023-07-13T12:47:04;97009.81;;;38.88;26.47
22755;BME280;11544;42.020;23.094;2023-07-13T12:49:33;97005.78;;;39.02;27.59
22755;BME280;11544;42.020;23.094;2023-07-13T12:52:09;97006.28;;;38.64;26.01
22755;BME280;11544;42.020;23.094;2023-07-13T12:54:39;97009.59;;;38.19;27.58
22755;BME280;11544;42.020;23.094;2023-07-13T12:57:16;96998.13;;;38.52;27.14
22755;BME280;11544;42.020;23.094;2023-07-13T12:59:43;96998.81;;;38.71;27.15
22755;BME280;11544;42.020;23.094;2023-07-13T13:02:45;96996.69;;;38.96;27.85
22755;BME280;11544;42.020;23.094;2023-07-13T13:05:15;96994.78;;;39.26;27.09
22755;BME280;11544;42.020;23.094;2023-07-13T13:07:43;96993.97;;;38.38;27.61
22755;BME280;11544;42.020;23.094;2023-07-13T13:10:13;96989.34;;;38.38;28.47
22755;BME280;11544;42.020;23.094;2023-07-13T13:12:41;96984.63;;;38.69;28.55
22755;BME280;11544;42.020;23.094;2023-07-13T13:15:10;96992.28;;;38.72;28.73
22755;BME280;11544;42.020;23.094;2023-07-13T13:17:37;96983.09;;;38.61;27.81
22755;BME280;11544;42.020;23.094;2023-07-13T13:20:17;96978.47;;;38.62;27.75
22755;BME280;11544;42.020;23.094;2023-07-13T13:22:45;96985.31;;;38.41;27.52
22755;BME280;11544;42.020;23.094;2023-07-13T13:25:13;96981.41;;;38.60;27.94
22755;BME280;11544;42.020;23.094;2023-07-13T13:27:41;96982.28;;;38.61;28.54
22755;BME280;11544;42.020;23.094;2023-07-13T13:30:14;96985.31;;;38.29;27.64
22755;BME280;11544;42.020;23.094;2023-07-13T13:32:44;96980.00;;;38.58;26.63
22755;BME280;11544;42.020;23.094;2023-07-13T13:35:20;96977.84;;;38.71;26.87
22755;BME280;11544;42.020;23.094;2023-07-13T13:37:47;96979.75;;;38.24;27.04
22755;BME280;11544;42.020;23.094;2023-07-13T13:40:19;96978.97;;;38.59;28.07
22755;BME280;11544;42.020;23.094;2023-07-13T13:42:47;96974.47;;;38.52;28.67
22755;BME280;11544;42.020;23.094;2023-07-13T13:45:15;96972.19;;;38.38;28.84
22755;BME280;11544;42.020;23.094;2023-07-13T13:47:44;96970.06;;;38.28;28.65
22755;BME280;11544;42.020;23.094;2023-07-13T13:50:15;96968.66;;;38.13;28.26
22755;BME280;11544;42.020;23.094;2023-07-13T13:52:43;96963.09;;;38.20;28.24
22755;BME280;11544;42.020;23.094;2023-07-13T13:55:19;96962.63;;;38.23;27.98